Time;durP1;ratioP1;P1;durP2;ratioP2;P2;SDS_P1;SDS_P2;PMS_P1;PMS_P2;Temp;Humidity;BMP_temperature;BMP_pressure;BME280_temperature;BME280_humidity;BME280_pressure;Samples;Min_cycle;Max_cycle;Signal;HPM_P1;HPM_P2
2020/12/06 00:01:20;;;;;;;21.07;14.97;;;;;;;-144.99;100.00;52550.00;5024822;28;20854;-68
2020/12/06 00:03:47;;;;;;;19.87;14.67;;;;;;;-144.99;100.00;52541.84;5025018;28;21253;-68
2020/12/06 00:06:13;;;;;;;18.07;14.07;;;;;;;-144.99;100.00;52529.63;5025319;28;20680;-69
2020/12/06 00:08:39;;;;;;;22.97;16.10;;;;;;;-144.99;100.00;52529.63;5025093;28;20731;-70
2020/12/06 00:11:06;;;;;;;19.27;13.40;;;;;;;-144.99;100.00;52509.25;5025602;28;20617;-69
2020/12/06 00:13:32;;;;;;;22.47;17.20;;;;;;;-144.99;100.00;52570.38;5024676;28;20647;-69
2020/12/06 00:15:58;;;;;;;22.60;16.90;;;;;;;-144.99;100.00;52545.94;4683177;28;9999788;-69
2020/12/06 00:18:24;;;;;;;22.47;17.53;;;;;;;-144.99;100.00;52511.28;5027489;28;20276;-69
2020/12/06 00:20:51;;;;;;;23.63;16.57;;;;;;;-144.99;100.00;52513.31;5026209;28;20653;-69
2020/12/06 00:23:20;;;;;;;23.17;18.23;;;;;;;-144.99;100.00;52529.63;5022676;28;20756;-70
2020/12/06 00:25:48;;;;;;;23.23;17.53;;;;;;;-144.99;100.00;52507.19;5028280;28;20649;-69
2020/12/06 00:28:14;;;;;;;19.27;15.50;;;;;;;-144.99;100.00;52537.78;5026975;28;21122;-70
2020/12/06 00:30:40;;;;;;;20.20;15.83;;;;;;;-144.99;100.00;52552.03;5026982;28;20735;-70
2020/12/06 00:33:06;;;;;;;25.23;16.03;;;;;;;-144.99;100.00;52545.94;5028116;28;20673;-69
2020/12/06 00:35:32;;;;;;;22.07;15.67;;;;;;;-144.99;100.00;52554.09;5027497;28;20696;-69
2020/12/06 00:37:59;;;;;;;21.00;15.07;;;;;;;-144.99;100.00;52541.84;5028835;28;20609;-69
2020/12/06 00:40:26;;;;;;;21.07;15.20;;;;;;;-144.99;100.00;52517.41;5027848;28;20779;-69
2020/12/06 00:42:52;;;;;;;20.03;16.57;;;;;;;-144.99;100.00;52529.63;5027385;28;21106;-69
2020/12/06 00:45:18;;;;;;;22.90;15.73;;;;;;;-144.99;100.00;52552.03;5026541;28;20663;-69
2020/12/06 00:47:44;;;;;;;22.30;16.47;;;;;;;-144.99;100.00;52497.00;5028907;28;20728;-69
2020/12/06 00:50:10;;;;;;;21.73;15.50;;;;;;;-144.99;100.00;52529.63;5026673;28;20657;-69
2020/12/06 00:52:36;;;;;;;19.90;14.60;;;;;;;-144.99;100.00;52533.69;5028487;28;20628;-69
2020/12/06 00:55:03;;;;;;;20.33;14.80;;;;;;;-144.99;100.00;52539.81;5026799;28;20668;-69
2020/12/06 00:57:29;;;;;;;25.97;17.97;;;;;;;-144.99;100.00;52476.63;5028531;28;20632;-70
2020/12/06 00:59:55;;;;;;;20.87;15.53;;;;;;;-144.99;100.00;52558.16;5024446;28;20685;-69
2020/12/06 01:02:21;;;;;;;21.50;14.93;;;;;;;-144.99;100.00;52521.47;5028516;28;20712;-70
2020/12/06 01:04:47;;;;;;;23.80;15.70;;;;;;;-144.99;100.00;52545.94;5026803;28;20740;-69
2020/12/06 01:07:13;;;;;;;22.23;16.57;;;;;;;-144.99;100.00;52554.09;5028872;28;20719;-69
2020/12/06 01:09:40;;;;;;;26.43;18.67;;;;;;;-144.99;100.00;52554.09;5027848;28;20633;-69
2020/12/06 01:12:07;;;;;;;24.30;16.60;;;;;;;-144.99;100.00;52521.47;5028756;28;20715;-69
2020/12/06 01:14:33;;;;;;;23.20;18.17;;;;;;;-144.99;100.00;52505.16;5028936;28;20753;-69
2020/12/06 01:16:59;;;;;;;23.33;17.73;;;;;;;-144.99;100.00;52543.91;5031383;28;20692;-69
2020/12/06 01:19:25;;;;;;;21.93;16.13;;;;;;;-144.99;100.00;52515.34;5031708;28;20747;-69
2020/12/06 01:21:52;;;;;;;21.33;14.87;;;;;;;-144.99;100.00;52529.63;5032280;28;20666;-69
2020/12/06 01:24:18;;;;;;;25.00;17.57;;;;;;;-144.99;100.00;52556.13;5024358;28;20636;-69
2020/12/06 01:26:48;;;;;;;24.97;17.63;;;;;;;-144.99;100.00;52545.94;5032382;28;20671;-69
2020/12/06 01:29:16;;;;;;;19.90;14.90;;;;;;;-144.99;100.00;52556.13;5031512;28;20735;-70
2020/12/06 01:31:46;;;;;;;20.80;16.27;;;;;;;-144.99;100.00;52525.56;5030936;28;21224;-67
2020/12/06 01:34:12;;;;;;;18.67;16.03;;;;;;;-144.99;100.00;52550.00;5031391;28;20735;-69
2020/12/06 01:36:38;;;;;;;20.67;16.70;;;;;;;-144.99;100.00;52501.09;5031186;28;20671;-69
2020/12/06 01:39:04;;;;;;;20.93;15.53;;;;;;;-144.99;100.00;52505.16;5031787;28;20733;-69
2020/12/06 01:41:31;;;;;;;19.70;14.20;;;;;;;-144.99;100.00;52543.91;5031087;28;20655;-69
2020/12/06 01:43:58;;;;;;;17.10;12.73;;;;;;;-144.99;100.00;52554.09;5030095;28;20735;-70
2020/12/06 01:46:25;;;;;;;21.97;15.87;;;;;;;-144.99;100.00;52550.00;5029343;28;20764;-70
2020/12/06 01:48:53;;;;;;;22.10;16.23;;;;;;;-144.99;100.00;52527.59;5031309;28;21173;-70
2020/12/06 01:51:20;;;;;;;21.33;16.07;;;;;;;-144.99;100.00;52505.16;5031335;28;20715;-70
2020/12/06 01:53:48;;;;;;;24.40;18.23;;;;;;;-144.99;100.00;52541.84;5030801;28;21108;-70
2020/12/06 01:56:14;;;;;;;21.43;17.33;;;;;;;-144.99;100.00;52513.31;5031281;28;21032;-69
2020/12/06 01:58:41;;;;;;;25.97;17.00;;;;;;;-144.99;100.00;52517.41;5030777;28;20732;-69
2020/12/06 02:01:08;;;;;;;25.83;16.60;;;;;;;-144.99;100.00;52519.44;5030804;28;20751;-69
2020/12/06 02:03:35;;;;;;;20.47;16.87;;;;;;;-144.99;100.00;52539.81;5030446;28;20989;-68
2020/12/06 02:06:02;;;;;;;21.17;15.30;;;;;;;-144.99;100.00;52505.16;5031289;28;20688;-68
2020/12/06 02:08:29;;;;;;;23.77;17.70;;;;;;;-144.99;100.00;52497.00;5031091;28;21082;-69
2020/12/06 02:10:55;;;;;;;21.53;14.63;;;;;;;-144.99;100.00;52517.41;5029883;28;21042;-68
2020/12/06 02:13:21;;;;;;;21.83;15.80;;;;;;;-144.99;100.00;52529.63;5028324;28;20707;-69
2020/12/06 02:15:47;;;;;;;24.20;18.30;;;;;;;-144.99;100.00;52529.63;5029287;28;20699;-69
2020/12/06 02:18:13;;;;;;;22.70;16.53;;;;;;;-144.99;100.00;52503.13;5029785;28;21288;-69
2020/12/06 02:20:40;;;;;;;21.80;16.97;;;;;;;-144.99;100.00;52537.78;5030537;28;21092;-69
2020/12/06 02:23:06;;;;;;;26.83;16.90;;;;;;;-144.99;100.00;52517.41;5029836;28;20736;-68
2020/12/06 02:25:34;;;;;;;23.67;19.47;;;;;;;-144.99;100.00;52574.47;5029108;28;20672;-68
2020/12/06 02:28:00;;;;;;;25.23;17.47;;;;;;;-144.99;100.00;52562.25;5029802;28;20811;-68
2020/12/06 02:30:27;;;;;;;28.10;18.23;;;;;;;-144.99;100.00;52497.00;5030438;28;20727;-69
2020/12/06 02:32:53;;;;;;;31.37;21.33;;;;;;;-144.99;100.00;52525.56;5030135;28;21082;-68
2020/12/06 02:35:19;;;;;;;24.63;16.50;;;;;;;-144.99;100.00;52531.66;5029975;28;20740;-68
2020/12/06 02:37:46;;;;;;;32.27;22.40;;;;;;;-144.99;100.00;52521.47;5030482;28;20723;-68
2020/12/06 02:40:12;;;;;;;26.40;18.10;;;;;;;-144.99;100.00;52539.81;5029214;28;20673;-68
2020/12/06 02:42:38;;;;;;;19.93;15.63;;;;;;;-144.99;100.00;52531.66;5030651;28;21160;-69
2020/12/06 02:45:05;;;;;;;21.87;16.20;;;;;;;-144.99;100.00;52525.56;5027484;28;20670;-69
2020/12/06 02:47:31;;;;;;;22.13;16.83;;;;;;;-144.99;100.00;52562.25;5030821;28;20712;-69
2020/12/06 02:49:57;;;;;;;20.97;16.50;;;;;;;-144.99;100.00;52529.63;5030122;28;20703;-69
2020/12/06 02:52:23;;;;;;;23.93;17.03;;;;;;;-144.99;100.00;52537.78;5028463;28;20631;-69
2020/12/06 02:54:50;;;;;;;22.50;16.93;;;;;;;-144.99;100.00;52545.94;5028800;28;20726;-69
2020/12/06 02:57:17;;;;;;;26.43;18.70;;;;;;;-144.99;100.00;52515.34;5030304;28;21205;-68
2020/12/06 02:59:43;;;;;;;23.60;19.63;;;;;;;-144.99;100.00;52517.41;5029832;28;20747;-69
2020/12/06 03:02:09;;;;;;;25.43;18.83;;;;;;;-144.99;100.00;52525.56;5030218;28;20728;-68
2020/12/06 03:04:35;;;;;;;26.90;16.70;;;;;;;-144.99;100.00;52492.94;5027838;28;20637;-68
2020/12/06 03:07:01;;;;;;;21.87;17.83;;;;;;;-144.99;100.00;52525.56;5030294;28;20719;-69
2020/12/06 03:09:28;;;;;;;24.80;18.10;;;;;;;-144.99;100.00;52521.47;5029383;28;20682;-68
2020/12/06 03:11:55;;;;;;;26.90;19.13;;;;;;;-144.99;100.00;52531.66;5026972;28;21216;-70
2020/12/06 03:14:21;;;;;;;21.80;15.50;;;;;;;-144.99;100.00;52521.47;5026979;28;20728;-69
2020/12/06 03:16:47;;;;;;;24.83;17.93;;;;;;;-144.99;100.00;52529.63;5029428;28;20676;-69
2020/12/06 03:19:13;;;;;;;28.20;16.43;;;;;;;-144.99;100.00;52547.97;5029195;28;20657;-70
2020/12/06 03:21:39;;;;;;;23.87;17.03;;;;;;;-144.99;100.00;52566.31;5027996;28;20751;-69
2020/12/06 03:24:05;;;;;;;27.53;18.47;;;;;;;-144.99;100.00;52556.13;5029584;28;21231;-70
2020/12/06 03:26:31;;;;;;;24.93;18.03;;;;;;;-144.99;100.00;52533.69;5028774;28;20771;-71
2020/12/06 03:28:58;;;;;;;23.10;15.90;;;;;;;-144.99;100.00;52503.13;5029133;28;20732;-70
2020/12/06 03:31:24;;;;;;;27.23;17.23;;;;;;;-144.99;100.00;52529.63;5027942;28;20952;-69
2020/12/06 03:33:50;;;;;;;26.13;18.27;;;;;;;-144.99;100.00;52521.47;5030000;28;20609;-69
2020/12/06 03:36:17;;;;;;;19.43;16.00;;;;;;;-144.99;100.00;52490.91;5026960;28;20692;-68
2020/12/06 03:38:43;;;;;;;18.97;14.47;;;;;;;-144.99;100.00;52509.25;5029759;28;20663;-69
2020/12/06 03:41:12;;;;;;;22.17;16.77;;;;;;;-144.99;100.00;52541.84;5028548;28;20663;-68
2020/12/06 03:43:38;;;;;;;24.30;19.43;;;;;;;-144.99;100.00;52533.69;5024294;28;20641;-69
2020/12/06 03:46:05;;;;;;;25.63;16.73;;;;;;;-144.99;100.00;52545.94;5027331;28;20775;-68
2020/12/06 03:48:31;;;;;;;26.03;16.20;;;;;;;-144.99;100.00;52519.44;5029559;28;20631;-69
2020/12/06 03:50:57;;;;;;;22.40;16.40;;;;;;;-144.99;100.00;52533.69;5028623;28;20735;-69
2020/12/06 03:53:23;;;;;;;22.10;16.57;;;;;;;-144.99;100.00;52523.50;5028410;28;20637;-69
2020/12/06 03:55:49;;;;;;;26.13;16.80;;;;;;;-144.99;100.00;52550.00;5029033;28;21120;-69
2020/12/06 03:58:15;;;;;;;22.03;14.80;;;;;;;-144.99;100.00;52515.34;5027981;28;20667;-70
2020/12/06 04:00:41;;;;;;;25.80;18.40;;;;;;;-144.99;100.00;52558.16;5028874;28;20659;-69
2020/12/06 04:03:08;;;;;;;22.10;16.90;;;;;;;-144.99;100.00;52566.31;5027320;28;20665;-68
2020/12/06 04:05:34;;;;;;;23.00;15.87;;;;;;;-144.99;100.00;52501.09;5027353;28;20784;-69
2020/12/06 04:08:00;;;;;;;21.10;16.50;;;;;;;-144.99;100.00;52513.31;5027551;28;20724;-69
2020/12/06 04:10:27;;;;;;;24.70;16.63;;;;;;;-144.99;100.00;52554.09;5028945;28;20631;-69
2020/12/06 04:12:53;;;;;;;20.60;17.30;;;;;;;-144.99;100.00;52525.56;5028260;28;20740;-69
2020/12/06 04:15:19;;;;;;;25.87;17.63;;;;;;;-144.99;100.00;52533.69;5027117;28;20756;-69
2020/12/06 04:17:45;;;;;;;20.17;16.23;;;;;;;-144.99;100.00;52505.16;5029254;28;20725;-69
2020/12/06 04:20:12;;;;;;;25.97;19.23;;;;;;;-144.99;100.00;52537.78;5028157;28;20684;-68
2020/12/06 04:22:38;;;;;;;27.13;16.83;;;;;;;-144.99;100.00;52521.47;5027653;28;21173;-69
2020/12/06 04:25:04;;;;;;;26.00;19.83;;;;;;;-144.99;100.00;52521.47;5027942;28;20664;-68
2020/12/06 04:27:30;;;;;;;24.10;17.90;;;;;;;-144.99;100.00;52529.63;5029478;28;20617;-69
2020/12/06 04:29:57;;;;;;;20.57;15.80;;;;;;;-144.99;100.00;52554.09;5027833;28;20679;-69
2020/12/06 04:32:23;;;;;;;25.60;17.90;;;;;;;-144.99;100.00;52501.09;5027231;28;20652;-69
2020/12/06 04:34:49;;;;;;;28.23;19.20;;;;;;;-144.99;100.00;52527.59;5028670;28;20735;-68
2020/12/06 04:37:16;;;;;;;24.07;17.30;;;;;;;-144.99;100.00;52527.59;5027417;28;20617;-69
2020/12/06 04:39:42;;;;;;;23.43;16.83;;;;;;;-144.99;100.00;52497.00;5027845;28;20715;-68
2020/12/06 04:42:09;;;;;;;27.87;19.27;;;;;;;-144.99;100.00;52492.94;5028353;28;20728;-69
2020/12/06 04:44:35;;;;;;;32.27;18.90;;;;;;;-144.99;100.00;52509.25;5027481;28;20625;-69
2020/12/06 04:47:03;;;;;;;22.77;17.60;;;;;;;-144.99;100.00;52537.78;5027950;28;20729;-69
2020/12/06 04:49:42;;;;;;;26.30;17.90;;;;;;;-144.99;100.00;52513.31;5028824;28;20724;-69
2020/12/06 04:52:13;;;;;;;24.97;18.83;;;;;;;-144.99;100.00;52521.47;5028550;28;20671;-69
2020/12/06 04:54:41;;;;;;;28.70;17.77;;;;;;;-144.99;100.00;52513.31;5027308;28;20624;-68
2020/12/06 04:57:10;;;;;;;26.80;20.00;;;;;;;-144.99;100.00;52533.69;5028907;28;20748;-69
2020/12/06 04:59:41;;;;;;;29.00;20.53;;;;;;;-144.99;100.00;52513.31;5024967;28;20744;-68
2020/12/06 05:02:10;;;;;;;25.40;18.87;;;;;;;-144.99;100.00;52525.56;5027972;28;20632;-68
2020/12/06 05:04:40;;;;;;;21.13;16.53;;;;;;;-144.99;100.00;52509.25;5027100;28;20633;-68
2020/12/06 05:07:06;;;;;;;29.10;19.80;;;;;;;-144.99;100.00;52513.31;5028316;28;21193;-68
2020/12/06 05:09:35;;;;;;;26.03;17.43;;;;;;;-144.99;100.00;52501.09;5027336;28;20723;-69
2020/12/06 05:12:03;;;;;;;25.67;16.50;;;;;;;-144.99;100.00;52513.31;5028309;28;21200;-68
2020/12/06 05:14:30;;;;;;;22.33;17.60;;;;;;;-144.99;100.00;52545.94;5026516;28;20656;-69
2020/12/06 05:16:57;;;;;;;27.87;17.83;;;;;;;-144.99;100.00;52562.25;5028306;28;20738;-69
2020/12/06 05:19:25;;;;;;;28.60;19.73;;;;;;;-144.99;100.00;52529.63;5028724;28;20624;-69
2020/12/06 05:21:52;;;;;;;21.77;17.50;;;;;;;-144.99;100.00;52505.16;5028644;28;20661;-69
2020/12/06 05:24:18;;;;;;;26.03;19.93;;;;;;;-144.99;100.00;52501.09;5025465;28;20728;-69
2020/12/06 05:26:44;;;;;;;24.30;17.40;;;;;;;-144.99;100.00;52556.13;5028123;28;20641;-69
2020/12/06 05:29:12;;;;;;;21.60;19.20;;;;;;;-144.99;100.00;52488.84;5027672;28;20647;-69
2020/12/06 05:31:38;;;;;;;19.23;16.00;;;;;;;-144.99;100.00;52505.16;5028111;28;20628;-68
2020/12/06 05:34:05;;;;;;;21.53;18.17;;;;;;;-144.99;100.00;52523.50;5036247;28;21320;-68
2020/12/06 05:36:31;;;;;;;22.63;16.37;;;;;;;-144.99;100.00;52497.00;5028096;28;20649;-69
2020/12/06 05:38:57;;;;;;;24.03;18.70;;;;;;;-144.99;100.00;52537.78;5028028;28;20736;-69
2020/12/06 05:41:23;;;;;;;24.63;19.07;;;;;;;-144.99;100.00;52482.75;5027367;28;20655;-68
2020/12/06 05:43:49;;;;;;;23.87;17.60;;;;;;;-144.99;100.00;52570.38;5026739;28;20722;-69
2020/12/06 05:46:17;;;;;;;24.53;16.30;;;;;;;-144.99;100.00;52499.06;5025999;28;20827;-69
2020/12/06 05:48:45;;;;;;;28.90;20.00;;;;;;;-144.99;100.00;52505.16;5027749;28;21199;-69
2020/12/06 05:51:13;;;;;;;25.10;18.93;;;;;;;-144.99;100.00;52525.56;5028379;28;20702;-70
2020/12/06 05:53:39;;;;;;;22.70;19.33;;;;;;;-144.99;100.00;52513.31;5028014;28;20675;-69
2020/12/06 05:56:11;;;;;;;30.60;20.00;;;;;;;-144.99;100.00;52484.78;5026387;28;20721;-69
2020/12/06 05:58:40;;;;;;;23.90;18.57;;;;;;;-144.99;100.00;52525.56;5027522;28;20682;-69
2020/12/06 06:01:07;;;;;;;26.07;19.37;;;;;;;-144.99;100.00;52566.31;5030027;28;20964;-69
2020/12/06 06:03:35;;;;;;;26.93;20.83;;;;;;;-144.99;100.00;52537.78;5030598;28;20645;-70
2020/12/06 06:06:04;;;;;;;26.03;17.63;;;;;;;-144.99;100.00;52525.56;5029545;28;20648;-70
2020/12/06 06:08:31;;;;;;;22.77;17.37;;;;;;;-144.99;100.00;52521.47;5053622;22;22559;-74
2020/12/06 06:11:15;;;;;;;25.07;18.17;;;;;;;-144.99;100.00;52509.25;5083292;28;20650;-73
2020/12/06 06:13:47;;;;;;;25.50;19.20;;;;;;;-144.99;100.00;52509.25;5095741;28;20645;-73
2020/12/06 06:16:15;;;;;;;32.27;21.60;;;;;;;-144.99;100.00;52492.94;5110462;28;20663;-73
2020/12/06 06:18:44;;;;;;;24.23;18.50;;;;;;;-144.99;100.00;52521.47;5084400;28;20714;-73
2020/12/06 06:21:11;;;;;;;27.57;20.40;;;;;;;-144.99;100.00;52554.09;5067132;28;20682;-73
2020/12/06 06:23:38;;;;;;;25.40;18.83;;;;;;;-144.99;100.00;52509.25;5072738;28;20659;-73
2020/12/06 06:26:05;;;;;;;24.97;18.30;;;;;;;-144.99;100.00;52558.16;5066609;28;20674;-73
2020/12/06 06:28:31;;;;;;;25.57;17.90;;;;;;;-144.99;100.00;52525.56;5065198;28;20678;-73
2020/12/06 06:30:57;;;;;;;25.47;18.00;;;;;;;-144.99;100.00;52488.84;5072571;28;20623;-73
2020/12/06 06:33:24;;;;;;;25.53;18.13;;;;;;;-144.99;100.00;52550.00;5074776;28;20715;-73
2020/12/06 06:35:52;;;;;;;27.00;19.33;;;;;;;-144.99;100.00;52529.63;5067602;28;20626;-73
2020/12/06 06:38:20;;;;;;;26.30;18.70;;;;;;;-144.99;100.00;52537.78;5073881;28;21262;-73
2020/12/06 06:40:50;;;;;;;23.80;17.90;;;;;;;-144.99;100.00;52533.69;5064385;28;20646;-74
2020/12/06 06:43:17;;;;;;;26.40;19.87;;;;;;;-144.99;100.00;52509.25;5065640;28;20734;-74
2020/12/06 06:45:44;;;;;;;27.57;22.43;;;;;;;-144.99;100.00;52497.00;5083413;28;20658;-74
2020/12/06 06:48:15;;;;;;;27.83;19.77;;;;;;;-144.99;100.00;52497.00;5086771;28;21118;-74
2020/12/06 06:50:41;;;;;;;23.70;20.07;;;;;;;-144.99;100.00;52525.56;5070241;28;21169;-74
2020/12/06 06:53:09;;;;;;;25.97;18.87;;;;;;;-144.99;100.00;52541.84;5081479;28;20623;-74
2020/12/06 06:55:47;;;;;;;26.97;20.33;;;;;;;-144.99;100.00;52525.56;5063571;28;20758;-74
2020/12/06 06:58:16;;;;;;;24.90;18.40;;;;;;;-144.99;100.00;52488.84;5066389;28;20733;-74
2020/12/06 07:00:43;;;;;;;25.00;19.43;;;;;;;-144.99;100.00;52556.13;5069584;28;20754;-74
2020/12/06 07:03:12;;;;;;;25.83;21.33;;;;;;;-144.99;100.00;52513.31;5065279;28;20734;-74
2020/12/06 07:05:39;;;;;;;21.13;16.97;;;;;;;-144.99;100.00;52545.94;5068939;28;20685;-73
2020/12/06 07:08:11;;;;;;;27.50;20.67;;;;;;;-144.99;100.00;52554.09;5086256;28;20692;-74
2020/12/06 07:10:40;;;;;;;28.37;21.37;;;;;;;-144.99;100.00;52472.56;5084810;28;20706;-74
2020/12/06 07:13:06;;;;;;;26.83;18.60;;;;;;;-144.99;100.00;52521.47;5080572;28;20733;-74
2020/12/06 07:15:33;;;;;;;28.37;21.73;;;;;;;-144.99;100.00;52517.41;5067243;28;20643;-71
2020/12/06 07:17:59;;;;;;;24.17;19.90;;;;;;;-144.99;100.00;52499.06;5049616;28;21214;-70
2020/12/06 07:20:27;;;;;;;30.60;21.50;;;;;;;-144.99;100.00;52517.41;5063608;28;21199;-71
2020/12/06 07:22:53;;;;;;;29.30;20.93;;;;;;;-144.99;100.00;52509.25;5065958;28;21003;-70
2020/12/06 07:25:21;;;;;;;33.73;23.20;;;;;;;-144.99;100.00;52558.16;5069600;28;20630;-71
2020/12/06 07:27:48;;;;;;;28.30;21.10;;;;;;;-144.99;100.00;52497.00;5081412;28;20626;-71
2020/12/06 07:30:16;;;;;;;24.57;19.70;;;;;;;-144.99;100.00;52505.16;5067383;28;20623;-72
2020/12/06 07:32:43;;;;;;;30.30;23.63;;;;;;;-144.99;100.00;52541.84;5072282;28;20625;-72
2020/12/06 07:35:13;;;;;;;30.37;21.60;;;;;;;-144.99;100.00;52499.06;5069609;28;21005;-72
2020/12/06 07:37:40;;;;;;;28.47;20.23;;;;;;;-144.99;100.00;52523.50;5060363;28;20727;-70
2020/12/06 07:40:07;;;;;;;27.67;20.60;;;;;;;-144.99;100.00;52537.78;5063660;28;20654;-70
2020/12/06 07:42:34;;;;;;;26.17;20.07;;;;;;;-144.99;100.00;52537.78;5067710;28;20650;-70
2020/12/06 07:45:02;;;;;;;30.43;23.03;;;;;;;-144.99;100.00;52478.66;5061656;28;20764;-70
2020/12/06 07:47:28;;;;;;;28.43;20.13;;;;;;;-144.99;100.00;52537.78;5069350;28;21021;-71
2020/12/06 07:49:56;;;;;;;30.30;23.23;;;;;;;-144.99;100.00;52525.56;5070849;28;20734;-70
2020/12/06 07:52:24;;;;;;;39.93;26.20;;;;;;;-144.99;100.00;52521.47;5076270;28;20756;-70
2020/12/06 07:54:54;;;;;;;34.63;25.83;;;;;;;-144.99;100.00;52519.44;5062089;28;20674;-71
2020/12/06 07:57:49;;;;;;;27.70;21.20;;;;;;;-144.99;100.00;52505.16;5065059;28;20623;-71
2020/12/06 08:00:18;;;;;;;30.03;20.77;;;;;;;-144.99;100.00;52492.94;5062138;28;20644;-71
2020/12/06 08:02:46;;;;;;;29.90;20.47;;;;;;;-144.99;100.00;52513.31;5065291;28;20608;-71
2020/12/06 08:05:18;;;;;;;31.83;23.67;;;;;;;-144.99;100.00;52529.63;5099032;28;20604;-72
2020/12/06 08:07:46;;;;;;;28.13;21.50;;;;;;;-144.99;100.00;52505.16;5069571;28;20934;-72
2020/12/06 08:10:15;;;;;;;36.27;25.37;;;;;;;-144.99;100.00;52543.91;5063406;28;20729;-73
2020/12/06 08:12:43;;;;;;;35.00;25.17;;;;;;;-144.99;100.00;52521.47;5067425;28;20717;-71
2020/12/06 08:15:11;;;;;;;35.33;22.37;;;;;;;-144.99;100.00;52525.56;5061660;28;20659;-72
2020/12/06 08:17:47;;;;;;;30.67;22.73;;;;;;;-144.99;100.00;52505.16;5067281;28;20657;-74
2020/12/06 08:20:15;;;;;;;29.83;24.10;;;;;;;-144.99;100.00;52533.69;5068301;28;20658;-71
2020/12/06 08:22:49;;;;;;;35.50;25.47;;;;;;;-144.99;100.00;52529.63;5056114;28;20643;-71
2020/12/06 08:25:16;;;;;;;32.23;26.50;;;;;;;-144.99;100.00;52431.78;5072182;28;20614;-71
2020/12/06 08:27:45;;;;;;;32.37;24.87;;;;;;;-144.99;100.00;52515.34;5057470;28;20718;-71
2020/12/06 08:30:13;;;;;;;33.23;24.47;;;;;;;-144.99;100.00;52525.56;5067137;28;20690;-71
2020/12/06 08:32:39;;;;;;;31.73;22.77;;;;;;;-144.99;100.00;52480.72;5063003;28;20692;-71
2020/12/06 08:35:05;;;;;;;32.10;24.10;;;;;;;-144.99;100.00;52464.41;5062806;28;20642;-71
2020/12/06 08:37:35;;;;;;;33.53;23.03;;;;;;;-144.99;100.00;52521.47;5057731;28;20719;-71
2020/12/06 08:40:03;;;;;;;31.37;24.57;;;;;;;-144.99;100.00;52513.31;5073222;28;20639;-72
2020/12/06 08:42:30;;;;;;;34.27;25.17;;;;;;;-144.99;100.00;52492.94;5075465;22;20686;-70
2020/12/06 08:44:59;;;;;;;39.63;27.10;;;;;;;-144.99;100.00;52468.47;5068179;28;21035;-71
2020/12/06 08:47:40;;;;;;;37.10;25.30;;;;;;;-144.99;100.00;52497.00;5071446;28;20680;-72
2020/12/06 08:50:09;;;;;;;33.67;25.50;;;;;;;-144.99;100.00;52525.56;5053617;28;21065;-72
2020/12/06 08:52:35;;;;;;;35.67;27.77;;;;;;;-144.99;100.00;52533.69;5070461;28;20670;-73
2020/12/06 08:55:02;;;;;;;33.50;25.10;;;;;;;-144.99;100.00;52497.00;5084058;22;20798;-77
2020/12/06 08:57:28;;;;;;;35.37;25.93;;;;;;;-144.99;100.00;52509.25;5068677;28;21187;-76
2020/12/06 08:59:55;;;;;;;36.37;27.53;;;;;;;-144.99;100.00;52492.94;5068956;28;20706;-72
2020/12/06 09:02:23;;;;;;;34.80;25.57;;;;;;;-144.99;100.00;52517.41;5069204;28;20661;-73
2020/12/06 09:04:52;;;;;;;30.40;23.37;;;;;;;-144.99;100.00;52501.09;5069734;28;20670;-72
2020/12/06 09:07:19;;;;;;;37.13;26.30;;;;;;;-144.99;100.00;52501.09;5069733;28;20622;-73
2020/12/06 09:09:45;;;;;;;30.90;24.73;;;;;;;-144.99;100.00;52482.75;5077081;28;20648;-73
2020/12/06 09:12:11;;;;;;;33.63;27.80;;;;;;;-144.99;100.00;52517.41;5075332;28;20610;-74
2020/12/06 09:14:38;;;;;;;30.13;26.43;;;;;;;-144.99;100.00;52497.00;5078686;28;20672;-74
2020/12/06 09:17:04;;;;;;;36.67;26.73;;;;;;;-144.99;100.00;52521.47;5074366;28;21174;-75
2020/12/06 09:19:31;;;;;;;40.07;26.17;;;;;;;-144.99;100.00;52484.78;5082269;28;20995;-74
2020/12/06 09:21:58;;;;;;;38.67;24.73;;;;;;;-144.99;100.00;52509.25;5070419;28;20728;-73
2020/12/06 09:24:24;;;;;;;32.30;24.87;;;;;;;-144.99;100.00;52497.00;5075868;28;20642;-75
2020/12/06 09:26:50;;;;;;;40.37;27.40;;;;;;;-144.99;100.00;52497.00;5078458;28;20669;-74
2020/12/06 09:29:16;;;;;;;36.07;26.50;;;;;;;-144.99;100.00;52480.72;5077135;28;21220;-75
2020/12/06 09:31:42;;;;;;;38.03;26.13;;;;;;;-144.99;100.00;52480.72;5073040;28;20656;-73
2020/12/06 09:34:08;;;;;;;41.67;27.93;;;;;;;-144.99;100.00;52476.63;5074243;28;20661;-74
2020/12/06 09:36:40;;;;;;;39.50;29.70;;;;;;;-144.99;100.00;52511.28;5076265;28;21085;-73
2020/12/06 09:39:07;;;;;;;34.03;26.27;;;;;;;-144.99;100.00;52448.09;5082997;28;20607;-75
2020/12/06 09:41:33;;;;;;;35.27;28.20;;;;;;;-144.99;100.00;52488.84;5081733;28;20685;-73
2020/12/06 09:44:03;;;;;;;41.20;27.63;;;;;;;-144.99;100.00;52517.41;5079368;28;20645;-73
2020/12/06 09:46:29;;;;;;;41.00;27.37;;;;;;;-144.99;100.00;52456.25;5077259;28;20657;-74
2020/12/06 09:48:56;;;;;;;41.70;28.40;;;;;;;-144.99;100.00;52509.25;5085142;28;20675;-72
2020/12/06 09:51:22;;;;;;;38.63;27.57;;;;;;;-144.99;100.00;52476.63;5079774;28;20649;-74
2020/12/06 09:53:49;;;;;;;32.37;24.00;;;;;;;-144.99;100.00;52462.34;5083409;28;20634;-73
2020/12/06 09:56:17;;;;;;;39.43;28.73;;;;;;;-144.99;100.00;52478.66;5078800;28;20641;-74
2020/12/06 09:58:43;;;;;;;46.20;31.27;;;;;;;-144.99;100.00;52517.41;5083560;28;20610;-74
2020/12/06 10:01:09;;;;;;;42.97;29.10;;;;;;;-144.99;100.00;52525.56;5078148;28;20742;-74
2020/12/06 10:03:37;;;;;;;45.40;29.77;;;;;;;-144.99;100.00;52513.31;5084685;28;20646;-75
2020/12/06 10:06:03;;;;;;;32.97;25.73;;;;;;;-144.99;100.00;52501.09;5075292;28;20642;-75
2020/12/06 10:08:29;;;;;;;40.40;29.77;;;;;;;-144.99;100.00;52448.09;5080059;28;20630;-75
2020/12/06 10:10:55;;;;;;;44.13;29.67;;;;;;;-144.99;100.00;52505.16;5083389;28;21083;-76
2020/12/06 10:13:22;;;;;;;39.47;25.83;;;;;;;-144.99;100.00;52501.09;5078868;28;20637;-75
2020/12/06 10:15:48;;;;;;;43.93;29.13;;;;;;;-144.99;100.00;52482.75;5080866;28;20651;-76
2020/12/06 10:18:14;;;;;;;37.57;27.90;;;;;;;-144.99;100.00;52462.34;5084088;28;21187;-74
2020/12/06 10:20:40;;;;;;;42.83;27.63;;;;;;;-144.99;100.00;52452.16;5078436;28;20658;-74
2020/12/06 10:23:06;;;;;;;44.27;29.27;;;;;;;-144.99;100.00;52521.47;5076074;28;20718;-73
2020/12/06 10:25:33;;;;;;;41.40;27.67;;;;;;;-144.99;100.00;52501.09;5081810;28;20429;-73
2020/12/06 10:27:59;;;;;;;34.83;25.27;;;;;;;-144.99;100.00;52476.63;5079669;28;20634;-74
2020/12/06 10:30:26;;;;;;;44.17;28.27;;;;;;;-144.99;100.00;52517.41;5076653;28;20619;-74
2020/12/06 10:32:52;;;;;;;37.20;28.10;;;;;;;-144.99;100.00;52476.63;5079886;28;20292;-74
2020/12/06 10:35:18;;;;;;;42.90;29.40;;;;;;;-144.99;100.00;52439.94;5081928;28;20638;-74
2020/12/06 10:37:44;;;;;;;46.43;29.70;;;;;;;-144.99;100.00;52478.66;5083779;28;20713;-73
2020/12/06 10:40:12;;;;;;;43.27;30.40;;;;;;;-144.99;100.00;52492.94;5080133;28;20284;-71
2020/12/06 10:42:38;;;;;;;43.87;25.80;;;;;;;-144.99;100.00;52488.84;5083387;28;20703;-74
2020/12/06 10:45:05;;;;;;;45.80;29.83;;;;;;;-144.99;100.00;52482.75;5076030;28;21024;-74
2020/12/06 10:47:32;;;;;;;36.60;25.83;;;;;;;-144.99;100.00;52497.00;5079497;28;20230;-75
2020/12/06 10:50:01;;;;;;;40.40;27.07;;;;;;;-144.99;100.00;52478.66;5080618;28;20653;-76
2020/12/06 10:52:27;;;;;;;42.40;30.20;;;;;;;-144.99;100.00;52507.19;5079729;28;20617;-76
2020/12/06 10:54:54;;;;;;;42.13;27.30;;;;;;;-144.99;100.00;52488.84;5079882;28;20651;-73